sensor_id;sensor_type;location;lat;lon;timestamp;P1;durP1;ratioP1;P2;durP2;ratioP2
69943;SDS011;57257;48.408;-4.498;2023-04-16T00:01:31;6.50;;;3.75;;
69943;SDS011;57257;48.408;-4.498;2023-04-16T00:03:57;7.00;;;6.75;;
69943;SDS011;57257;48.408;-4.498;2023-04-16T00:06:23;6.25;;;5.50;;
69943;SDS011;57257;48.408;-4.498;2023-04-16T00:08:48;5.00;;;5.00;;
69943;SDS011;57257;48.408;-4.498;2023-04-16T00:11:15;5.00;;;4.00;;
69943;SDS011;57257;48.408;-4.498;2023-04-16T00:13:41;3.75;;;3.00;;
69943;SDS011;57257;48.408;-4.498;2023-04-16T00:16:06;5.50;;;3.00;;
69943;SDS011;57257;48.408;-4.498;2023-04-16T00:18:32;5.25;;;3.50;;
69943;SDS011;57257;48.408;-4.498;2023-04-16T00:20:57;5.50;;;3.25;;
69943;SDS011;57257;48.408;-4.498;2023-04-16T00:23:23;6.00;;;3.50;;
69943;SDS011;57257;48.408;-4.498;2023-04-16T00:25:49;4.00;;;4.00;;
69943;SDS011;57257;48.408;-4.498;2023-04-16T00:28:15;3.00;;;3.00;;
69943;SDS011;57257;48.408;-4.498;2023-04-16T00:30:40;1.50;;;1.50;;
69943;SDS011;57257;48.408;-4.498;2023-04-16T00:33:06;3.25;;;3.00;;
69943;SDS011;57257;48.408;-4.498;2023-04-16T00:35:31;2.50;;;2.50;;
69943;SDS011;57257;48.408;-4.498;2023-04-16T00:37:57;4.00;;;4.00;;
69943;SDS011;57257;48.408;-4.498;2023-04-16T00:40:22;7.00;;;3.50;;
69943;SDS011;57257;48.408;-4.498;2023-04-16T00:42:50;5.25;;;4.00;;
69943;SDS011;57257;48.408;-4.498;2023-04-16T00:45:16;4.50;;;3.25;;
69943;SDS011;57257;48.408;-4.498;2023-04-16T00:47:41;3.50;;;1.00;;
69943;SDS011;57257;48.408;-4.498;2023-04-16T00:50:07;3.00;;;3.00;;
69943;SDS011;57257;48.408;-4.498;2023-04-16T00:52:32;2.50;;;2.50;;
69943;SDS011;57257;48.408;-4.498;2023-04-16T00:54:58;3.00;;;3.00;;
69943;SDS011;57257;48.408;-4.498;2023-04-16T00:57:24;10.25;;;3.25;;
69943;SDS011;57257;48.408;-4.498;2023-04-16T00:59:51;6.50;;;4.00;;
69943;SDS011;57257;48.408;-4.498;2023-04-16T01:02:16;13.75;;;3.75;;
69943;SDS011;57257;48.408;-4.498;2023-04-16T01:04:42;4.00;;;4.00;;
69943;SDS011;57257;48.408;-4.498;2023-04-16T01:07:07;3.25;;;3.25;;
69943;SDS011;57257;48.408;-4.498;2023-04-16T01:09:33;8.00;;;5.50;;
69943;SDS011;57257;48.408;-4.498;2023-04-16T01:11:58;6.75;;;3.50;;
69943;SDS011;57257;48.408;-4.498;2023-04-16T01:14:24;4.00;;;1.00;;
69943;SDS011;57257;48.408;-4.498;2023-04-16T01:16:49;3.00;;;3.00;;
69943;SDS011;57257;48.408;-4.498;2023-04-16T01:19:14;3.25;;;3.00;;
69943;SDS011;57257;48.408;-4.498;2023-04-16T01:21:40;3.25;;;2.00;;
69943;SDS011;57257;48.408;-4.498;2023-04-16T01:24:06;1.00;;;1.00;;
69943;SDS011;57257;48.408;-4.498;2023-04-16T01:26:31;3.00;;;3.00;;
69943;SDS011;57257;48.408;-4.498;2023-04-16T01:28:57;3.00;;;1.00;;
69943;SDS011;57257;48.408;-4.498;2023-04-16T01:31:24;3.50;;;1.00;;
69943;SDS011;57257;48.408;-4.498;2023-04-16T01:33:49;2.00;;;1.00;;
69943;SDS011;57257;48.408;-4.498;2023-04-16T01:36:15;0.00;;;0.00;;
69943;SDS011;57257;48.408;-4.498;2023-04-16T01:38:40;3.25;;;1.00;;
69943;SDS011;57257;48.408;-4.498;2023-04-16T01:41:06;0.00;;;0.00;;
69943;SDS011;57257;48.408;-4.498;2023-04-16T01:43:31;0.00;;;0.00;;
69943;SDS011;57257;48.408;-4.498;2023-04-16T01:48:55;0.00;;;0.00;;
69943;SDS011;57257;48.408;-4.498;2023-04-16T01:51:21;0.75;;;0.75;;
69943;SDS011;57257;48.408;-4.498;2023-04-16T01:53:46;0.25;;;0.00;;
69943;SDS011;57257;48.408;-4.498;2023-04-16T01:56:13;0.00;;;0.00;;
69943;SDS011;57257;48.408;-4.498;2023-04-16T01:58:38;1.00;;;0.00;;
69943;SDS011;57257;48.408;-4.498;2023-04-16T02:01:05;0.00;;;0.00;;
69943;SDS011;57257;48.408;-4.498;2023-04-16T02:03:30;0.00;;;0.00;;
69943;SDS011;57257;48.408;-4.498;2023-04-16T02:05:56;0.00;;;0.00;;
69943;SDS011;57257;48.408;-4.498;2023-04-16T02:08:21;1.00;;;0.00;;
69943;SDS011;57257;48.408;-4.498;2023-04-16T02:10:48;0.00;;;0.00;;
69943;SDS011;57257;48.408;-4.498;2023-04-16T02:13:14;0.25;;;0.25;;
69943;SDS011;57257;48.408;-4.498;2023-04-16T02:15:47;3.00;;;0.00;;
69943;SDS011;57257;48.408;-4.498;2023-04-16T02:18:14;0.00;;;0.00;;
69943;SDS011;57257;48.408;-4.498;2023-04-16T02:20:40;1.00;;;1.00;;
69943;SDS011;57257;48.408;-4.498;2023-04-16T02:23:06;1.00;;;1.00;;
69943;SDS011;57257;48.408;-4.498;2023-04-16T02:25:36;0.00;;;0.00;;
69943;SDS011;57257;48.408;-4.498;2023-04-16T02:28:09;1.00;;;0.00;;
69943;SDS011;57257;48.408;-4.498;2023-04-16T02:30:36;2.00;;;2.00;;
69943;SDS011;57257;48.408;-4.498;2023-04-16T02:33:02;3.00;;;3.00;;
69943;SDS011;57257;48.408;-4.498;2023-04-16T02:35:30;2.50;;;1.00;;
69943;SDS011;57257;48.408;-4.498;2023-04-16T02:37:56;0.25;;;0.25;;
69943;SDS011;57257;48.408;-4.498;2023-04-16T02:40:22;0.50;;;0.50;;
69943;SDS011;57257;48.408;-4.498;2023-04-16T02:42:48;0.00;;;0.00;;
69943;SDS011;57257;48.408;-4.498;2023-04-16T02:45:14;0.50;;;0.50;;
69943;SDS011;57257;48.408;-4.498;2023-04-16T02:47:39;0.50;;;0.50;;
69943;SDS011;57257;48.408;-4.498;2023-04-16T02:50:05;0.00;;;0.00;;
69943;SDS011;57257;48.408;-4.498;2023-04-16T02:52:31;0.00;;;0.00;;
69943;SDS011;57257;48.408;-4.498;2023-04-16T02:54:57;1.00;;;0.00;;
69943;SDS011;57257;48.408;-4.498;2023-04-16T02:57:23;0.00;;;0.00;;
69943;SDS011;57257;48.408;-4.498;2023-04-16T02:59:48;0.00;;;0.00;;
69943;SDS011;57257;48.408;-4.498;2023-04-16T03:02:14;0.00;;;0.00;;
69943;SDS011;57257;48.408;-4.498;2023-04-16T03:04:40;0.00;;;0.00;;
69943;SDS011;57257;48.408;-4.498;2023-04-16T03:07:05;3.00;;;0.75;;
69943;SDS011;57257;48.408;-4.498;2023-04-16T03:09:32;0.00;;;0.00;;
69943;SDS011;57257;48.408;-4.498;2023-04-16T03:11:58;2.50;;;0.00;;
69943;SDS011;57257;48.408;-4.498;2023-04-16T03:14:23;1.00;;;1.00;;
69943;SDS011;57257;48.408;-4.498;2023-04-16T03:16:48;2.00;;;1.00;;
69943;SDS011;57257;48.408;-4.498;2023-04-16T03:19:14;0.00;;;0.00;;
69943;SDS011;57257;48.408;-4.498;2023-04-16T03:21:39;0.00;;;0.00;;
69943;SDS011;57257;48.408;-4.498;2023-04-16T03:24:05;0.25;;;0.00;;
69943;SDS011;57257;48.408;-4.498;2023-04-16T03:26:31;0.00;;;0.00;;
69943;SDS011;57257;48.408;-4.498;2023-04-16T03:28:56;0.25;;;0.00;;
69943;SDS011;57257;48.408;-4.498;2023-04-16T03:31:24;2.25;;;1.00;;
69943;SDS011;57257;48.408;-4.498;2023-04-16T03:33:50;1.00;;;1.00;;
69943;SDS011;57257;48.408;-4.498;2023-04-16T03:36:15;0.00;;;0.00;;
69943;SDS011;57257;48.408;-4.498;2023-04-16T03:38:41;0.75;;;0.75;;
69943;SDS011;57257;48.408;-4.498;2023-04-16T03:41:06;0.00;;;0.00;;
69943;SDS011;57257;48.408;-4.498;2023-04-16T03:43:32;0.00;;;0.00;;
69943;SDS011;57257;48.408;-4.498;2023-04-16T03:45:57;4.00;;;1.00;;
69943;SDS011;57257;48.408;-4.498;2023-04-16T03:48:22;0.75;;;0.75;;
69943;SDS011;57257;48.408;-4.498;2023-04-16T03:50:48;0.00;;;0.00;;
69943;SDS011;57257;48.408;-4.498;2023-04-16T03:53:13;0.00;;;0.00;;
69943;SDS011;57257;48.408;-4.498;2023-04-16T03:55:39;0.75;;;0.25;;
69943;SDS011;57257;48.408;-4.498;2023-04-16T03:58:07;0.00;;;0.00;;
69943;SDS011;57257;48.408;-4.498;2023-04-16T04:00:33;0.00;;;0.00;;
69943;SDS011;57257;48.408;-4.498;2023-04-16T04:02:58;0.50;;;0.50;;
69943;SDS011;57257;48.408;-4.498;2023-04-16T04:05:24;0.00;;;0.00;;
69943;SDS011;57257;48.408;-4.498;2023-04-16T04:07:49;0.00;;;0.00;;
69943;SDS011;57257;48.408;-4.498;2023-04-16T04:10:15;1.00;;;0.00;;
69943;SDS011;57257;48.408;-4.498;2023-04-16T04:12:40;0.00;;;0.00;;
69943;SDS011;57257;48.408;-4.498;2023-04-16T04:15:06;0.00;;;0.00;;
69943;SDS011;57257;48.408;-4.498;2023-04-16T04:17:32;3.00;;;0.00;;
69943;SDS011;57257;48.408;-4.498;2023-04-16T04:19:57;0.00;;;0.00;;
69943;SDS011;57257;48.408;-4.498;2023-04-16T04:22:26;0.00;;;0.00;;
69943;SDS011;57257;48.408;-4.498;2023-04-16T04:24:52;0.25;;;0.25;;
69943;SDS011;57257;48.408;-4.498;2023-04-16T04:27:17;0.25;;;0.00;;
69943;SDS011;57257;48.408;-4.498;2023-04-16T04:29:42;0.75;;;0.00;;
69943;SDS011;57257;48.408;-4.498;2023-04-16T04:32:08;0.00;;;0.00;;
69943;SDS011;57257;48.408;-4.498;2023-04-16T04:34:33;1.50;;;0.25;;
69943;SDS011;57257;48.408;-4.498;2023-04-16T04:36:59;0.00;;;0.00;;
69943;SDS011;57257;48.408;-4.498;2023-04-16T04:39:24;0.75;;;0.00;;
69943;SDS011;57257;48.408;-4.498;2023-04-16T04:41:50;0.00;;;0.00;;
69943;SDS011;57257;48.408;-4.498;2023-04-16T04:44:15;0.00;;;0.00;;
69943;SDS011;57257;48.408;-4.498;2023-04-16T04:46:41;0.75;;;0.00;;
69943;SDS011;57257;48.408;-4.498;2023-04-16T04:49:06;0.00;;;0.00;;
69943;SDS011;57257;48.408;-4.498;2023-04-16T04:51:31;1.00;;;1.00;;
69943;SDS011;57257;48.408;-4.498;2023-04-16T04:53:57;0.00;;;0.00;;
69943;SDS011;57257;48.408;-4.498;2023-04-16T04:56:22;0.50;;;0.50;;
69943;SDS011;57257;48.408;-4.498;2023-04-16T04:58:51;2.25;;;0.50;;
69943;SDS011;57257;48.408;-4.498;2023-04-16T05:01:16;0.75;;;0.75;;
69943;SDS011;57257;48.408;-4.498;2023-04-16T05:03:42;0.25;;;0.25;;
69943;SDS011;57257;48.408;-4.498;2023-04-16T05:06:08;0.00;;;0.00;;
69943;SDS011;57257;48.408;-4.498;2023-04-16T05:08:33;0.75;;;0.75;;
69943;SDS011;57257;48.408;-4.498;2023-04-16T05:10:59;0.25;;;0.25;;
69943;SDS011;57257;48.408;-4.498;2023-04-16T05:13:24;0.50;;;0.50;;
69943;SDS011;57257;48.408;-4.498;2023-04-16T05:15:50;0.00;;;0.00;;
69943;SDS011;57257;48.408;-4.498;2023-04-16T05:18:15;0.00;;;0.00;;
69943;SDS011;57257;48.408;-4.498;2023-04-16T05:20:41;0.25;;;0.00;;
69943;SDS011;57257;48.408;-4.498;2023-04-16T05:23:06;1.00;;;1.00;;
69943;SDS011;57257;48.408;-4.498;2023-04-16T05:25:32;0.75;;;0.75;;
69943;SDS011;57257;48.408;-4.498;2023-04-16T05:27:57;0.00;;;0.00;;
69943;SDS011;57257;48.408;-4.498;2023-04-16T05:30:22;0.00;;;0.00;;
69943;SDS011;57257;48.408;-4.498;2023-04-16T05:32:48;2.00;;;0.00;;
69943;SDS011;57257;48.408;-4.498;2023-04-16T05:35:13;3.00;;;0.00;;
69943;SDS011;57257;48.408;-4.498;2023-04-16T05:37:39;0.00;;;0.00;;
69943;SDS011;57257;48.408;-4.498;2023-04-16T05:40:04;1.00;;;0.00;;
69943;SDS011;57257;48.408;-4.498;2023-04-16T05:42:30;0.00;;;0.00;;
69943;SDS011;57257;48.408;-4.498;2023-04-16T05:44:56;0.00;;;0.00;;
69943;SDS011;57257;48.408;-4.498;2023-04-16T05:47:21;0.00;;;0.00;;
69943;SDS011;57257;48.408;-4.498;2023-04-16T05:49:47;1.50;;;0.00;;
69943;SDS011;57257;48.408;-4.498;2023-04-16T05:52:12;0.00;;;0.00;;
69943;SDS011;57257;48.408;-4.498;2023-04-16T05:54:38;0.25;;;0.25;;
69943;SDS011;57257;48.408;-4.498;2023-04-16T05:57:03;0.00;;;0.00;;
69943;SDS011;57257;48.408;-4.498;2023-04-16T05:59:29;0.00;;;0.00;;
69943;SDS011;57257;48.408;-4.498;2023-04-16T06:01:55;1.00;;;1.00;;
69943;SDS011;57257;48.408;-4.498;2023-04-16T06:04:20;0.00;;;0.00;;
69943;SDS011;57257;48.408;-4.498;2023-04-16T06:06:46;0.50;;;0.00;;
69943;SDS011;57257;48.408;-4.498;2023-04-16T06:09:11;0.00;;;0.00;;
69943;SDS011;57257;48.408;-4.498;2023-04-16T06:11:37;0.00;;;0.00;;
69943;SDS011;57257;48.408;-4.498;2023-04-16T06:14:02;0.00;;;0.00;;
69943;SDS011;57257;48.408;-4.498;2023-04-16T06:16:27;2.50;;;0.00;;
69943;SDS011;57257;48.408;-4.498;2023-04-16T06:18:53;1.00;;;0.00;;
69943;SDS011;57257;48.408;-4.498;2023-04-16T06:21:18;1.00;;;0.00;;
69943;SDS011;57257;48.408;-4.498;2023-04-16T06:23:44;0.00;;;0.00;;
69943;SDS011;57257;48.408;-4.498;2023-04-16T06:26:09;0.00;;;0.00;;
69943;SDS011;57257;48.408;-4.498;2023-04-16T06:28:35;0.00;;;0.00;;
69943;SDS011;57257;48.408;-4.498;2023-04-16T06:31:00;0.00;;;0.00;;
69943;SDS011;57257;48.408;-4.498;2023-04-16T06:33:26;0.00;;;0.00;;
69943;SDS011;57257;48.408;-4.498;2023-04-16T06:35:52;1.00;;;0.25;;
69943;SDS011;57257;48.408;-4.498;2023-04-16T06:38:17;0.00;;;0.00;;
69943;SDS011;57257;48.408;-4.498;2023-04-16T06:40:42;0.00;;;0.00;;
69943;SDS011;57257;48.408;-4.498;2023-04-16T06:43:08;0.50;;;0.00;;
69943;SDS011;57257;48.408;-4.498;2023-04-16T06:45:33;0.00;;;0.00;;
69943;SDS011;57257;48.408;-4.498;2023-04-16T06:47:59;0.00;;;0.00;;
69943;SDS011;57257;48.408;-4.498;2023-04-16T06:50:25;0.00;;;0.00;;
69943;SDS011;57257;48.408;-4.498;2023-04-16T06:52:52;0.00;;;0.00;;
69943;SDS011;57257;48.408;-4.498;2023-04-16T06:55:18;0.75;;;0.00;;
69943;SDS011;57257;48.408;-4.498;2023-04-16T06:57:44;0.75;;;0.75;;
69943;SDS011;57257;48.408;-4.498;2023-04-16T07:00:10;0.00;;;0.00;;
69943;SDS011;57257;48.408;-4.498;2023-04-16T07:02:36;0.00;;;0.00;;
69943;SDS011;57257;48.408;-4.498;2023-04-16T07:05:01;0.00;;;0.00;;
69943;SDS011;57257;48.408;-4.498;2023-04-16T07:07:26;0.00;;;0.00;;
69943;SDS011;57257;48.408;-4.498;2023-04-16T07:09:52;6.25;;;0.00;;
69943;SDS011;57257;48.408;-4.498;2023-04-16T07:12:18;1.00;;;0.00;;
69943;SDS011;57257;48.408;-4.498;2023-04-16T07:14:44;0.00;;;0.00;;
69943;SDS011;57257;48.408;-4.498;2023-04-16T07:17:10;0.00;;;0.00;;
69943;SDS011;57257;48.408;-4.498;2023-04-16T07:19:35;0.00;;;0.00;;
69943;SDS011;57257;48.408;-4.498;2023-04-16T07:22:01;0.00;;;0.00;;
69943;SDS011;57257;48.408;-4.498;2023-04-16T07:24:26;0.00;;;0.00;;
69943;SDS011;57257;48.408;-4.498;2023-04-16T07:26:52;0.00;;;0.00;;
69943;SDS011;57257;48.408;-4.498;2023-04-16T07:29:17;0.75;;;0.00;;
69943;SDS011;57257;48.408;-4.498;2023-04-16T07:31:43;0.00;;;0.00;;
69943;SDS011;57257;48.408;-4.498;2023-04-16T07:34:09;0.00;;;0.00;;
69943;SDS011;57257;48.408;-4.498;2023-04-16T07:36:34;0.00;;;0.00;;
69943;SDS011;57257;48.408;-4.498;2023-04-16T07:39:00;0.00;;;0.00;;
69943;SDS011;57257;48.408;-4.498;2023-04-16T07:41:26;0.00;;;0.00;;
69943;SDS011;57257;48.408;-4.498;2023-04-16T07:43:53;0.50;;;0.50;;
69943;SDS011;57257;48.408;-4.498;2023-04-16T07:46:18;0.00;;;0.00;;
69943;SDS011;57257;48.408;-4.498;2023-04-16T07:48:44;0.00;;;0.00;;
69943;SDS011;57257;48.408;-4.498;2023-04-16T07:51:10;0.00;;;0.00;;
69943;SDS011;57257;48.408;-4.498;2023-04-16T07:53:35;0.00;;;0.00;;
69943;SDS011;57257;48.408;-4.498;2023-04-16T07:56:01;0.00;;;0.00;;
69943;SDS011;57257;48.408;-4.498;2023-04-16T07:58:26;0.00;;;0.00;;
69943;SDS011;57257;48.408;-4.498;2023-04-16T08:00:52;0.00;;;0.00;;
69943;SDS011;57257;48.408;-4.498;2023-04-16T08:03:17;0.00;;;0.00;;
69943;SDS011;57257;48.408;-4.498;2023-04-16T08:05:43;0.00;;;0.00;;
69943;SDS011;57257;48.408;-4.498;2023-04-16T08:08:08;0.00;;;0.00;;
69943;SDS011;57257;48.408;-4.498;2023-04-16T08:10:34;0.00;;;0.00;;
69943;SDS011;57257;48.408;-4.498;2023-04-16T08:12:59;0.00;;;0.00;;
69943;SDS011;57257;48.408;-4.498;2023-04-16T08:15:26;0.00;;;0.00;;
69943;SDS011;57257;48.408;-4.498;2023-04-16T08:17:52;0.00;;;0.00;;
69943;SDS011;57257;48.408;-4.498;2023-04-16T08:20:18;0.00;;;0.00;;
69943;SDS011;57257;48.408;-4.498;2023-04-16T08:22:44;1.00;;;0.00;;
69943;SDS011;57257;48.408;-4.498;2023-04-16T08:25:10;0.00;;;0.00;;
69943;SDS011;57257;48.408;-4.498;2023-04-16T08:27:35;0.00;;;0.00;;
69943;SDS011;57257;48.408;-4.498;2023-04-16T08:30:01;1.00;;;0.00;;
69943;SDS011;57257;48.408;-4.498;2023-04-16T08:32:26;1.00;;;0.00;;
69943;SDS011;57257;48.408;-4.498;2023-04-16T08:34:52;0.00;;;0.00;;
69943;SDS011;57257;48.408;-4.498;2023-04-16T08:37:17;0.25;;;0.00;;
69943;SDS011;57257;48.408;-4.498;2023-04-16T08:39:43;0.00;;;0.00;;
69943;SDS011;57257;48.408;-4.498;2023-04-16T08:42:12;1.50;;;0.00;;
69943;SDS011;57257;48.408;-4.498;2023-04-16T08:44:47;0.00;;;0.00;;
69943;SDS011;57257;48.408;-4.498;2023-04-16T08:47:13;1.00;;;0.00;;
69943;SDS011;57257;48.408;-4.498;2023-04-16T08:49:43;1.50;;;0.00;;
69943;SDS011;57257;48.408;-4.498;2023-04-16T08:52:15;0.50;;;0.50;;
69943;SDS011;57257;48.408;-4.498;2023-04-16T08:54:49;0.00;;;0.00;;
69943;SDS011;57257;48.408;-4.498;2023-04-16T08:57:21;0.00;;;0.00;;
69943;SDS011;57257;48.408;-4.498;2023-04-16T08:59:50;0.00;;;0.00;;
69943;SDS011;57257;48.408;-4.498;2023-04-16T09:02:18;0.00;;;0.00;;
69943;SDS011;57257;48.408;-4.498;2023-04-16T09:04:44;1.00;;;1.00;;
69943;SDS011;57257;48.408;-4.498;2023-04-16T09:07:12;0.00;;;0.00;;
69943;SDS011;57257;48.408;-4.498;2023-04-16T09:09:39;0.75;;;0.00;;
69943;SDS011;57257;48.408;-4.498;2023-04-16T09:12:07;1.00;;;0.00;;
69943;SDS011;57257;48.408;-4.498;2023-04-16T09:14:34;0.00;;;0.00;;
69943;SDS011;57257;48.408;-4.498;2023-04-16T09:17:00;0.00;;;0.00;;
69943;SDS011;57257;48.408;-4.498;2023-04-16T09:19:26;1.00;;;0.00;;
69943;SDS011;57257;48.408;-4.498;2023-04-16T09:21:52;0.00;;;0.00;;
69943;SDS011;57257;48.408;-4.498;2023-04-16T09:24:18;0.75;;;0.00;;
69943;SDS011;57257;48.408;-4.498;2023-04-16T09:26:43;0.00;;;0.00;;
69943;SDS011;57257;48.408;-4.498;2023-04-16T09:29:10;0.00;;;0.00;;
69943;SDS011;57257;48.408;-4.498;2023-04-16T09:31:35;3.75;;;0.00;;
69943;SDS011;57257;48.408;-4.498;2023-04-16T09:34:02;0.00;;;0.00;;
69943;SDS011;57257;48.408;-4.498;2023-04-16T09:36:32;0.00;;;0.00;;
69943;SDS011;57257;48.408;-4.498;2023-04-16T09:38:58;3.00;;;0.25;;
69943;SDS011;57257;48.408;-4.498;2023-04-16T09:41:25;0.00;;;0.00;;
69943;SDS011;57257;48.408;-4.498;2023-04-16T09:46:29;1.50;;;0.00;;
69943;SDS011;57257;48.408;-4.498;2023-04-16T09:49:08;1.00;;;1.00;;
69943;SDS011;57257;48.408;-4.498;2023-04-16T09:51:40;3.00;;;0.75;;
69943;SDS011;57257;48.408;-4.498;2023-04-16T09:54:07;1.00;;;0.00;;
69943;SDS011;57257;48.408;-4.498;2023-04-16T09:56:32;2.00;;;2.00;;
69943;SDS011;57257;48.408;-4.498;2023-04-16T09:59:03;3.00;;;0.00;;
69943;SDS011;57257;48.408;-4.498;2023-04-16T10:01:29;1.00;;;1.00;;
69943;SDS011;57257;48.408;-4.498;2023-04-16T10:03:54;0.00;;;0.00;;
69943;SDS011;57257;48.408;-4.498;2023-04-16T10:06:21;0.00;;;0.00;;
69943;SDS011;57257;48.408;-4.498;2023-04-16T10:08:48;0.00;;;0.00;;
69943;SDS011;57257;48.408;-4.498;2023-04-16T10:11:14;0.75;;;0.25;;
69943;SDS011;57257;48.408;-4.498;2023-04-16T10:13:41;0.00;;;0.00;;
69943;SDS011;57257;48.408;-4.498;2023-04-16T10:16:09;2.50;;;0.00;;
69943;SDS011;57257;48.408;-4.498;2023-04-16T10:18:36;0.00;;;0.00;;
69943;SDS011;57257;48.408;-4.498;2023-04-16T10:21:03;0.00;;;0.00;;
69943;SDS011;57257;48.408;-4.498;2023-04-16T10:23:28;0.75;;;0.75;;
69943;SDS011;57257;48.408;-4.498;2023-04-16T10:25:54;0.00;;;0.00;;
69943;SDS011;57257;48.408;-4.498;2023-04-16T10:28:21;1.00;;;0.00;;
69943;SDS011;57257;48.408;-4.498;2023-04-16T10:30:48;0.00;;;0.00;;
69943;SDS011;57257;48.408;-4.498;2023-04-16T10:33:19;3.00;;;1.00;;
69943;SDS011;57257;48.408;-4.498;2023-04-16T10:35:46;1.00;;;1.00;;
69943;SDS011;57257;48.408;-4.498;2023-04-16T10:38:24;0.00;;;0.00;;
69943;SDS011;57257;48.408;-4.498;2023-04-16T10:41:12;0.00;;;0.00;;
69943;SDS011;57257;48.408;-4.498;2023-04-16T10:43:44;0.25;;;0.25;;
69943;SDS011;57257;48.408;-4.498;2023-04-16T10:48:52;0.50;;;0.00;;
69943;SDS011;57257;48.408;-4.498;2023-04-16T10:51:24;1.00;;;0.00;;
69943;SDS011;57257;48.408;-4.498;2023-04-16T10:53:56;0.50;;;0.00;;
69943;SDS011;57257;48.408;-4.498;2023-04-16T10:56:26;0.75;;;0.75;;
69943;SDS011;57257;48.408;-4.498;2023-04-16T10:58:55;1.00;;;1.00;;
69943;SDS011;57257;48.408;-4.498;2023-04-16T11:04:00;1.00;;;1.00;;
69943;SDS011;57257;48.408;-4.498;2023-04-16T11:12:16;3.75;;;3.00;;
69943;SDS011;57257;48.408;-4.498;2023-04-16T11:14:48;1.00;;;1.00;;
69943;SDS011;57257;48.408;-4.498;2023-04-16T11:17:15;0.00;;;0.00;;
69943;SDS011;57257;48.408;-4.498;2023-04-16T11:19:41;1.00;;;1.00;;
69943;SDS011;57257;48.408;-4.498;2023-04-16T11:22:06;3.00;;;3.00;;
69943;SDS011;57257;48.408;-4.498;2023-04-16T11:24:32;0.00;;;0.00;;
69943;SDS011;57257;48.408;-4.498;2023-04-16T11:26:58;1.00;;;1.00;;
69943;SDS011;57257;48.408;-4.498;2023-04-16T11:29:23;1.00;;;1.00;;
69943;SDS011;57257;48.408;-4.498;2023-04-16T11:31:49;0.75;;;0.75;;
69943;SDS011;57257;48.408;-4.498;2023-04-16T11:34:16;1.00;;;1.00;;
69943;SDS011;57257;48.408;-4.498;2023-04-16T11:36:43;1.00;;;1.00;;
69943;SDS011;57257;48.408;-4.498;2023-04-16T11:39:10;3.50;;;1.00;;
69943;SDS011;57257;48.408;-4.498;2023-04-16T11:41:45;1.50;;;0.50;;
69943;SDS011;57257;48.408;-4.498;2023-04-16T11:46:43;6.00;;;0.00;;
69943;SDS011;57257;48.408;-4.498;2023-04-16T11:49:09;1.25;;;0.75;;
69943;SDS011;57257;48.408;-4.498;2023-04-16T11:51:38;0.25;;;0.25;;
69943;SDS011;57257;48.408;-4.498;2023-04-16T11:54:05;2.00;;;0.00;;
69943;SDS011;57257;48.408;-4.498;2023-04-16T11:56:33;0.25;;;0.25;;
69943;SDS011;57257;48.408;-4.498;2023-04-16T12:01:36;0.00;;;0.00;;
69943;SDS011;57257;48.408;-4.498;2023-04-16T12:04:03;1.00;;;1.00;;
69943;SDS011;57257;48.408;-4.498;2023-04-16T12:06:28;1.00;;;0.00;;
69943;SDS011;57257;48.408;-4.498;2023-04-16T12:08:56;1.00;;;1.00;;
69943;SDS011;57257;48.408;-4.498;2023-04-16T12:11:25;0.00;;;0.00;;
69943;SDS011;57257;48.408;-4.498;2023-04-16T12:14:10;0.00;;;0.00;;
69943;SDS011;57257;48.408;-4.498;2023-04-16T12:16:37;0.75;;;0.75;;
69943;SDS011;57257;48.408;-4.498;2023-04-16T12:19:03;0.00;;;0.00;;
69943;SDS011;57257;48.408;-4.498;2023-04-16T12:21:39;0.00;;;0.00;;
69943;SDS011;57257;48.408;-4.498;2023-04-16T12:24:10;1.00;;;1.00;;
69943;SDS011;57257;48.408;-4.498;2023-04-16T12:26:44;0.75;;;0.00;;
69943;SDS011;57257;48.408;-4.498;2023-04-16T12:29:14;0.00;;;0.00;;
69943;SDS011;57257;48.408;-4.498;2023-04-16T12:31:41;0.00;;;0.00;;
69943;SDS011;57257;48.408;-4.498;2023-04-16T12:34:06;0.75;;;0.00;;
69943;SDS011;57257;48.408;-4.498;2023-04-16T12:36:31;0.00;;;0.00;;
69943;SDS011;57257;48.408;-4.498;2023-04-16T12:38:57;1.25;;;0.50;;
69943;SDS011;57257;48.408;-4.498;2023-04-16T12:41:22;1.00;;;1.00;;
69943;SDS011;57257;48.408;-4.498;2023-04-16T12:43:48;0.00;;;0.00;;
69943;SDS011;57257;48.408;-4.498;2023-04-16T12:46:13;0.00;;;0.00;;
69943;SDS011;57257;48.408;-4.498;2023-04-16T12:48:39;0.25;;;0.00;;
69943;SDS011;57257;48.408;-4.498;2023-04-16T12:51:05;0.00;;;0.00;;
69943;SDS011;57257;48.408;-4.498;2023-04-16T12:53:31;1.00;;;0.00;;
69943;SDS011;57257;48.408;-4.498;2023-04-16T12:55:56;0.00;;;0.00;;
69943;SDS011;57257;48.408;-4.498;2023-04-16T12:58:22;0.00;;;0.00;;
69943;SDS011;57257;48.408;-4.498;2023-04-16T13:00:47;0.00;;;0.00;;
69943;SDS011;57257;48.408;-4.498;2023-04-16T13:03:13;0.00;;;0.00;;
69943;SDS011;57257;48.408;-4.498;2023-04-16T13:05:39;0.25;;;0.00;;
69943;SDS011;57257;48.408;-4.498;2023-04-16T13:08:04;0.00;;;0.00;;
69943;SDS011;57257;48.408;-4.498;2023-04-16T13:10:30;0.00;;;0.00;;
69943;SDS011;57257;48.408;-4.498;2023-04-16T13:12:55;0.00;;;0.00;;
69943;SDS011;57257;48.408;-4.498;2023-04-16T13:15:20;0.00;;;0.00;;
69943;SDS011;57257;48.408;-4.498;2023-04-16T13:17:46;0.00;;;0.00;;
69943;SDS011;57257;48.408;-4.498;2023-04-16T13:20:11;0.00;;;0.00;;
69943;SDS011;57257;48.408;-4.498;2023-04-16T13:22:37;0.00;;;0.00;;
69943;SDS011;57257;48.408;-4.498;2023-04-16T13:25:03;0.50;;;0.00;;
69943;SDS011;57257;48.408;-4.498;2023-04-16T13:27:29;0.00;;;0.00;;
69943;SDS011;57257;48.408;-4.498;2023-04-16T13:29:56;0.00;;;0.00;;
69943;SDS011;57257;48.408;-4.498;2023-04-16T13:32:21;0.00;;;0.00;;
69943;SDS011;57257;48.408;-4.498;2023-04-16T13:34:46;0.00;;;0.00;;
69943;SDS011;57257;48.408;-4.498;2023-04-16T13:37:12;0.00;;;0.00;;
69943;SDS011;57257;48.408;-4.498;2023-04-16T13:39:37;0.00;;;0.00;;
69943;SDS011;57257;48.408;-4.498;2023-04-16T13:42:03;0.00;;;0.00;;
69943;SDS011;57257;48.408;-4.498;2023-04-16T13:44:28;0.00;;;0.00;;
69943;SDS011;57257;48.408;-4.498;2023-04-16T13:46:54;0.50;;;0.00;;
69943;SDS011;57257;48.408;-4.498;2023-04-16T13:49:20;1.25;;;0.00;;
69943;SDS011;57257;48.408;-4.498;2023-04-16T13:51:46;0.00;;;0.00;;
69943;SDS011;57257;48.408;-4.498;2023-04-16T13:54:12;0.00;;;0.00;;
69943;SDS011;57257;48.408;-4.498;2023-04-16T13:56:37;0.00;;;0.00;;
69943;SDS011;57257;48.408;-4.498;2023-04-16T13:59:03;0.00;;;0.00;;
69943;SDS011;57257;48.408;-4.498;2023-04-16T14:01:28;0.00;;;0.00;;
69943;SDS011;57257;48.408;-4.498;2023-04-16T14:03:54;0.00;;;0.00;;
69943;SDS011;57257;48.408;-4.498;2023-04-16T14:06:19;0.00;;;0.00;;
69943;SDS011;57257;48.408;-4.498;2023-04-16T14:08:45;0.25;;;0.25;;
69943;SDS011;57257;48.408;-4.498;2023-04-16T14:11:10;6.00;;;0.00;;
69943;SDS011;57257;48.408;-4.498;2023-04-16T14:13:36;0.00;;;0.00;;
69943;SDS011;57257;48.408;-4.498;2023-04-16T14:16:01;0.00;;;0.00;;
69943;SDS011;57257;48.408;-4.498;2023-04-16T14:18:27;3.00;;;0.00;;
69943;SDS011;57257;48.408;-4.498;2023-04-16T14:20:53;0.00;;;0.00;;
69943;SDS011;57257;48.408;-4.498;2023-04-16T14:23:18;0.00;;;0.00;;
69943;SDS011;57257;48.408;-4.498;2023-04-16T14:25:43;0.00;;;0.00;;
69943;SDS011;57257;48.408;-4.498;2023-04-16T14:28:09;0.00;;;0.00;;
69943;SDS011;57257;48.408;-4.498;2023-04-16T14:30:35;0.00;;;0.00;;
69943;SDS011;57257;48.408;-4.498;2023-04-16T14:33:00;0.00;;;0.00;;
69943;SDS011;57257;48.408;-4.498;2023-04-16T14:35:26;0.25;;;0.25;;
69943;SDS011;57257;48.408;-4.498;2023-04-16T14:37:52;0.00;;;0.00;;
69943;SDS011;57257;48.408;-4.498;2023-04-16T14:40:17;0.00;;;0.00;;
69943;SDS011;57257;48.408;-4.498;2023-04-16T14:42:43;1.00;;;0.00;;
69943;SDS011;57257;48.408;-4.498;2023-04-16T14:45:08;0.00;;;0.00;;
69943;SDS011;57257;48.408;-4.498;2023-04-16T14:47:35;0.00;;;0.00;;
69943;SDS011;57257;48.408;-4.498;2023-04-16T14:50:02;0.00;;;0.00;;